Time;durP1;ratioP1;P1;durP2;ratioP2;P2;SDS_P1;SDS_P2;PMS_P1;PMS_P2;Temp;Humidity;BMP_temperature;BMP_pressure;BME280_temperature;BME280_humidity;BME280_pressure;Samples;Min_cycle;Max_cycle;Signal;HPM_P1;HPM_P2
2023/08/22 00:00:13;;;;;;;0.00;0.00;;;;;;;19.57;100.00;97006.63;4985954;28;20038;-80
2023/08/22 00:02:58;;;;;;;0.00;0.00;;;;;;;19.55;100.00;97011.50;4988133;28;20129;-80
2023/08/22 00:05:45;;;;;;;0.10;0.10;;;;;;;19.52;100.00;97003.94;4985479;28;20049;-80
2023/08/22 00:08:31;;;;;;;0.10;0.10;;;;;;;19.47;100.00;97006.72;4981941;28;20046;-80
2023/08/22 00:11:16;;;;;;;0.00;0.00;;;;;;;19.46;100.00;97003.22;4982748;28;20503;-80
2023/08/22 00:14:03;;;;;;;0.03;0.03;;;;;;;19.48;100.00;97008.34;4984477;28;20132;-80
2023/08/22 00:16:49;;;;;;;0.00;0.00;;;;;;;19.42;100.00;96998.66;4981839;28;20465;-80
2023/08/22 00:19:35;;;;;;;0.00;0.00;;;;;;;19.16;100.00;97003.59;4981745;28;20580;-80
2023/08/22 00:22:21;;;;;;;0.00;0.00;;;;;;;19.01;100.00;96988.31;4982615;28;20076;-80
2023/08/22 00:25:09;;;;;;;0.00;0.00;;;;;;;19.04;100.00;96985.03;4981668;28;20133;-80
2023/08/22 00:27:55;;;;;;;0.00;0.00;;;;;;;19.09;100.00;96973.31;4984981;28;20867;-80
2023/08/22 00:30:41;;;;;;;0.00;0.00;;;;;;;19.10;100.00;96966.78;4983624;28;20039;-80
2023/08/22 00:33:26;;;;;;;0.05;0.05;;;;;;;19.08;100.00;96958.16;4971058;28;20174;-80
2023/08/22 00:36:12;;;;;;;0.00;0.00;;;;;;;19.07;100.00;96949.19;4971674;28;20628;-81
2023/08/22 00:38:59;;;;;;;0.00;0.00;;;;;;;18.95;100.00;96951.50;4970218;28;20053;-79
2023/08/22 00:41:45;;;;;;;0.10;0.10;;;;;;;18.86;100.00;96943.22;4969670;28;20664;-79
2023/08/22 00:44:31;;;;;;;0.00;0.00;;;;;;;18.81;100.00;96937.03;4981477;28;20050;-80
2023/08/22 00:47:18;;;;;;;0.00;0.00;;;;;;;18.72;100.00;96936.88;4959826;28;20096;-79
2023/08/22 00:50:05;;;;;;;0.00;0.00;;;;;;;18.76;100.00;96939.81;4971308;28;20664;-80
2023/08/22 00:52:52;;;;;;;0.00;0.00;;;;;;;18.71;100.00;96940.69;4976123;28;20033;-80
2023/08/22 00:55:38;;;;;;;0.00;0.00;;;;;;;18.75;100.00;96940.91;4973074;28;20042;-80
2023/08/22 00:58:24;;;;;;;0.00;0.00;;;;;;;18.78;100.00;96948.47;4982944;28;20878;-80
2023/08/22 01:01:10;;;;;;;0.00;0.00;;;;;;;18.69;100.00;96948.31;4971620;28;20096;-80
2023/08/22 01:03:56;;;;;;;0.05;0.05;;;;;;;18.38;100.00;96948.59;4979058;28;20066;-80
2023/08/22 01:06:55;;;;;;;0.00;0.00;;;;;;;18.42;100.00;96948.00;4984593;28;20041;-79
2023/08/22 01:09:52;;;;;;;0.00;0.00;;;;;;;18.42;100.00;96948.00;4975630;28;20049;-79
2023/08/22 01:13:04;;;;;;;0.00;0.00;;;;;;;18.44;100.00;96951.22;4969919;28;20823;-80
2023/08/22 01:15:51;;;;;;;0.10;0.10;;;;;;;18.49;100.00;96953.91;4983864;28;20050;-80
2023/08/22 01:18:39;;;;;;;0.00;0.00;;;;;;;18.52;100.00;96948.72;4981509;28;20064;-80
2023/08/22 01:21:25;;;;;;;0.00;0.00;;;;;;;18.49;100.00;96949.28;4982278;28;20604;-80
2023/08/22 01:24:12;;;;;;;0.00;0.00;;;;;;;18.45;100.00;96950.97;4981597;28;20300;-79
2023/08/22 01:26:58;;;;;;;0.00;0.00;;;;;;;18.47;100.00;96951.47;4969630;28;20041;-79
2023/08/22 01:30:01;;;;;;;0.00;0.00;;;;;;;18.50;100.00;96952.81;4956745;28;20064;-80
2023/08/22 01:32:51;;;;;;;0.00;0.00;;;;;;;18.51;100.00;96951.69;4982757;28;20839;-80
2023/08/22 01:35:39;;;;;;;0.00;0.00;;;;;;;18.48;100.00;96936.03;4982858;28;20058;-79
2023/08/22 01:38:29;;;;;;;0.00;0.00;;;;;;;18.44;100.00;96943.91;4980531;28;20049;-80
2023/08/22 01:41:16;;;;;;;0.10;0.10;;;;;;;18.57;100.00;96945.94;4971806;28;20041;-79
2023/08/22 01:44:05;;;;;;;0.10;0.10;;;;;;;18.62;100.00;96945.91;4968337;28;20521;-79
2023/08/22 01:46:51;;;;;;;0.00;0.00;;;;;;;18.72;100.00;96942.28;4981438;28;20048;-80
2023/08/22 01:49:37;;;;;;;0.08;0.00;;;;;;;18.61;100.00;96949.72;4970335;28;20041;-79
2023/08/22 01:52:23;;;;;;;0.00;0.00;;;;;;;18.70;100.00;96959.94;4983405;28;20042;-80
2023/08/22 01:55:10;;;;;;;0.10;0.10;;;;;;;18.76;100.00;96947.97;4982559;28;20732;-79
2023/08/22 01:57:56;;;;;;;0.00;0.00;;;;;;;18.83;100.00;96951.94;4970987;28;20053;-80
2023/08/22 02:00:42;;;;;;;0.00;0.00;;;;;;;18.82;100.00;96952.19;4970820;28;20053;-80
2023/08/22 02:03:28;;;;;;;0.00;0.00;;;;;;;18.74;100.00;96960.97;4967878;28;20122;-80
2023/08/22 02:06:16;;;;;;;0.00;0.00;;;;;;;18.70;100.00;96952.63;4980637;28;20045;-80
2023/08/22 02:09:05;;;;;;;0.00;0.00;;;;;;;18.64;100.00;96954.53;4979191;28;20062;-80
2023/08/22 02:11:53;;;;;;;0.00;0.00;;;;;;;18.41;100.00;96951.81;4980886;28;20179;-80
2023/08/22 02:14:39;;;;;;;0.10;0.10;;;;;;;18.42;100.00;96959.66;4971443;28;20050;-80
2023/08/22 02:17:24;;;;;;;0.00;0.00;;;;;;;18.41;100.00;96960.75;4980239;28;20045;-80
2023/08/22 02:20:11;;;;;;;0.00;0.00;;;;;;;18.29;100.00;96955.72;4981254;28;20034;-79
2023/08/22 02:22:58;;;;;;;0.00;0.00;;;;;;;18.12;100.00;96959.94;4968106;28;20168;-80
2023/08/22 02:25:46;;;;;;;0.10;0.10;;;;;;;17.99;100.00;96961.41;4983719;28;20038;-80
2023/08/22 02:28:32;;;;;;;0.00;0.00;;;;;;;17.90;100.00;96954.97;4981342;28;20046;-80
2023/08/22 02:31:18;;;;;;;0.05;0.05;;;;;;;17.89;100.00;96956.88;4979283;28;20038;-80
2023/08/22 02:34:04;;;;;;;0.10;0.10;;;;;;;17.88;100.00;96949.03;4968177;28;20048;-79
2023/08/22 02:36:52;;;;;;;0.00;0.00;;;;;;;17.83;100.00;96955.31;4982952;28;20119;-79
2023/08/22 02:39:38;;;;;;;0.00;0.00;;;;;;;17.89;100.00;96943.34;4973596;28;20097;-79
2023/08/22 02:42:23;;;;;;;0.03;0.03;;;;;;;17.95;100.00;96949.53;4969918;28;20073;-79
2023/08/22 02:45:09;;;;;;;0.10;0.10;;;;;;;17.91;100.00;96935.75;4970965;28;20073;-79
2023/08/22 02:47:55;;;;;;;0.00;0.00;;;;;;;17.96;100.00;96940.31;4970198;28;20841;-79
2023/08/22 02:50:41;;;;;;;0.00;0.00;;;;;;;17.89;100.00;96937.13;4968218;28;20447;-79
2023/08/22 02:53:27;;;;;;;0.10;0.10;;;;;;;17.89;100.00;96945.25;4968477;28;20137;-80
2023/08/22 02:56:14;;;;;;;0.00;0.00;;;;;;;17.75;100.00;96947.81;4968535;28;20050;-80
2023/08/22 02:59:00;;;;;;;0.00;0.00;;;;;;;17.76;100.00;96930.47;4969173;28;20732;-80
2023/08/22 03:01:46;;;;;;;0.10;0.10;;;;;;;17.71;100.00;96938.63;4972955;28;20045;-80
2023/08/22 03:04:33;;;;;;;0.00;0.00;;;;;;;17.67;100.00;96934.84;4969162;28;20511;-80
2023/08/22 03:07:19;;;;;;;0.00;0.00;;;;;;;17.74;100.00;96938.03;4969464;28;20045;-79
2023/08/22 03:10:08;;;;;;;0.00;0.00;;;;;;;17.77;100.00;96941.00;4968866;28;20042;-79
2023/08/22 03:12:53;;;;;;;0.00;0.00;;;;;;;17.71;100.00;96934.00;4981838;28;20050;-81
2023/08/22 03:15:39;;;;;;;0.10;0.10;;;;;;;17.47;100.00;96944.72;4966894;28;20039;-80
2023/08/22 03:18:26;;;;;;;0.00;0.00;;;;;;;17.55;100.00;96936.00;4972413;28;20037;-81
2023/08/22 03:21:11;;;;;;;0.00;0.00;;;;;;;17.51;100.00;96932.25;4983946;28;20041;-80
2023/08/22 03:23:58;;;;;;;0.10;0.10;;;;;;;17.56;100.00;96942.22;4968373;28;20070;-80
2023/08/22 03:26:44;;;;;;;0.10;0.10;;;;;;;17.53;100.00;96938.19;4969034;28;20073;-80
2023/08/22 03:29:31;;;;;;;0.08;0.08;;;;;;;17.41;100.00;96942.31;4966769;28;20066;-80
2023/08/22 03:32:17;;;;;;;0.10;0.10;;;;;;;17.34;100.00;96939.91;4973662;28;20042;-80
2023/08/22 03:35:03;;;;;;;0.00;0.00;;;;;;;17.19;100.00;96940.81;4968765;28;20109;-80
2023/08/22 03:37:51;;;;;;;0.00;0.00;;;;;;;17.28;100.00;96938.34;4966374;28;20042;-80
2023/08/22 03:40:36;;;;;;;0.00;0.00;;;;;;;17.28;100.00;96932.94;4971974;28;20070;-80
2023/08/22 03:43:23;;;;;;;0.00;0.00;;;;;;;17.38;100.00;96937.47;4982805;28;20609;-80
2023/08/22 03:46:09;;;;;;;0.00;0.00;;;;;;;17.29;100.00;96936.44;4975937;28;20574;-80
2023/08/22 03:48:54;;;;;;;0.00;0.00;;;;;;;17.27;100.00;96936.69;4974552;28;20097;-80
2023/08/22 03:51:41;;;;;;;0.00;0.00;;;;;;;17.27;100.00;96934.84;4975486;28;20052;-81
2023/08/22 03:54:26;;;;;;;0.10;0.10;;;;;;;17.31;100.00;96937.78;4972858;28;20223;-80
2023/08/22 03:57:12;;;;;;;0.00;0.00;;;;;;;17.33;100.00;96949.13;4976355;28;20038;-80
2023/08/22 03:59:58;;;;;;;0.00;0.00;;;;;;;17.29;100.00;96942.66;4974760;28;20490;-80
2023/08/22 04:02:46;;;;;;;0.00;0.00;;;;;;;17.28;100.00;96946.47;4970694;28;20054;-80
2023/08/22 04:05:32;;;;;;;0.00;0.00;;;;;;;17.25;100.00;96949.72;4978199;28;20613;-81
2023/08/22 04:08:18;;;;;;;0.00;0.00;;;;;;;17.16;100.00;96938.66;4974242;28;20358;-80
2023/08/22 04:11:03;;;;;;;0.03;0.03;;;;;;;17.18;100.00;96946.50;4986253;28;20044;-81
2023/08/22 04:13:50;;;;;;;0.00;0.00;;;;;;;17.22;100.00;96937.56;4985121;28;20057;-80
2023/08/22 04:16:37;;;;;;;0.00;0.00;;;;;;;17.14;100.00;96946.25;4984158;28;20065;-80
2023/08/22 04:19:24;;;;;;;0.00;0.00;;;;;;;17.17;100.00;96940.28;4976224;28;20064;-81
2023/08/22 04:22:10;;;;;;;0.05;0.05;;;;;;;17.16;100.00;96935.16;4973988;28;20816;-80
2023/08/22 04:24:56;;;;;;;0.00;0.00;;;;;;;17.19;100.00;96935.41;4984345;28;20097;-81
2023/08/22 04:27:42;;;;;;;0.03;0.03;;;;;;;16.94;100.00;96939.03;4973022;28;20053;-80
2023/08/22 04:30:29;;;;;;;0.05;0.05;;;;;;;16.92;100.00;96938.53;4974187;28;20038;-80
2023/08/22 04:33:15;;;;;;;0.00;0.00;;;;;;;17.00;100.00;96934.44;4961699;28;20053;-80
2023/08/22 04:36:00;;;;;;;0.00;0.00;;;;;;;17.02;100.00;96943.06;4974200;28;20161;-80
2023/08/22 04:38:49;;;;;;;0.10;0.10;;;;;;;17.01;100.00;96946.84;4973760;28;20131;-80
2023/08/22 04:41:36;;;;;;;0.10;0.10;;;;;;;16.95;100.00;96939.84;4984075;28;20355;-81
2023/08/22 04:44:48;;;;;;;0.03;0.03;;;;;;;17.00;100.00;96939.84;4985509;28;20085;-81
2023/08/22 04:47:37;;;;;;;0.10;0.10;;;;;;;16.96;100.00;96945.00;4986363;28;20149;-80
2023/08/22 04:50:23;;;;;;;0.10;0.10;;;;;;;16.95;100.00;96942.56;4973354;28;20652;-81
2023/08/22 04:53:09;;;;;;;0.10;0.10;;;;;;;16.94;100.00;96943.63;4986430;28;20042;-80
2023/08/22 04:55:55;;;;;;;0.00;0.00;;;;;;;16.95;100.00;96946.06;4974288;28;20695;-80
2023/08/22 04:58:41;;;;;;;0.00;0.00;;;;;;;17.05;100.00;96945.22;4986639;28;20133;-80
2023/08/22 05:01:27;;;;;;;0.10;0.10;;;;;;;17.00;100.00;96939.84;4971471;28;20117;-80
2023/08/22 05:04:16;;;;;;;0.00;0.00;;;;;;;16.91;100.00;96942.31;4976234;28;20031;-80
2023/08/22 05:07:02;;;;;;;0.10;0.10;;;;;;;16.87;100.00;96952.03;4977319;28;20791;-80
2023/08/22 05:09:48;;;;;;;0.05;0.05;;;;;;;16.98;100.00;96942.00;4973724;28;20093;-81
2023/08/22 05:12:34;;;;;;;0.00;0.00;;;;;;;17.10;100.00;96938.97;4983590;28;20053;-80
2023/08/22 05:15:21;;;;;;;0.10;0.10;;;;;;;17.16;100.00;96943.28;4973506;28;20034;-80
2023/08/22 05:18:08;;;;;;;0.03;0.03;;;;;;;17.25;100.00;96947.81;4972620;28;20045;-80
2023/08/22 05:20:54;;;;;;;0.10;0.10;;;;;;;17.25;100.00;96937.00;4976840;28;20053;-80
2023/08/22 05:23:43;;;;;;;0.03;0.03;;;;;;;17.27;100.00;96934.84;4971027;28;20763;-80
2023/08/22 05:26:30;;;;;;;0.00;0.00;;;;;;;17.34;100.00;96945.31;4975236;28;20064;-80
2023/08/22 05:29:19;;;;;;;0.10;0.10;;;;;;;17.34;100.00;96934.50;4976113;28;20049;-81
2023/08/22 05:32:05;;;;;;;0.10;0.10;;;;;;;17.43;100.00;96946.38;4968563;28;20038;-81
2023/08/22 05:34:51;;;;;;;0.00;0.00;;;;;;;17.49;100.00;96947.94;4974527;28;20069;-81
2023/08/22 05:37:37;;;;;;;0.00;0.00;;;;;;;17.57;100.00;96943.00;4974073;28;20042;-81
2023/08/22 05:40:23;;;;;;;0.00;0.00;;;;;;;17.70;100.00;96954.06;4975589;28;20643;-81
2023/08/22 05:43:10;;;;;;;0.10;0.10;;;;;;;17.81;100.00;96949.34;4971311;28;20061;-81
2023/08/22 05:45:55;;;;;;;0.08;0.08;;;;;;;17.98;100.00;96952.50;4972194;28;20057;-80
2023/08/22 05:48:42;;;;;;;0.10;0.10;;;;;;;18.15;100.00;96960.19;4972049;28;20038;-81
2023/08/22 05:51:28;;;;;;;0.10;0.10;;;;;;;18.43;100.00;96947.72;4983532;28;20767;-82
2023/08/22 05:54:15;;;;;;;0.10;0.10;;;;;;;18.74;100.00;96950.13;4970588;28;20041;-81
2023/08/22 05:57:01;;;;;;;0.10;0.10;;;;;;;18.79;100.00;96942.75;4972291;28;20677;-82
2023/08/22 05:59:47;;;;;;;0.10;0.10;;;;;;;18.88;100.00;96941.00;4971887;28;20163;-81
2023/08/22 06:02:33;;;;;;;0.00;0.00;;;;;;;18.95;100.00;96948.78;4969188;28;20587;-82
2023/08/22 06:05:19;;;;;;;0.10;0.10;;;;;;;19.08;100.00;96950.81;4973725;28;20733;-81
2023/08/22 06:08:05;;;;;;;0.03;0.03;;;;;;;19.24;100.00;96951.41;4971573;28;20500;-80
2023/08/22 06:10:51;;;;;;;0.00;0.00;;;;;;;19.35;100.00;96957.50;4967468;28;20809;-81
2023/08/22 06:13:37;;;;;;;0.00;0.00;;;;;;;19.52;100.00;96951.56;4972604;28;20458;-80
2023/08/22 06:16:23;;;;;;;0.10;0.10;;;;;;;19.60;100.00;96962.59;4982965;28;20053;-80
2023/08/22 06:19:10;;;;;;;0.00;0.00;;;;;;;19.49;100.00;96950.25;4967768;28;20034;-80
2023/08/22 06:21:56;;;;;;;0.10;0.10;;;;;;;19.53;100.00;96955.88;4973968;28;20245;-80
2023/08/22 06:24:42;;;;;;;0.10;0.10;;;;;;;19.50;100.00;96957.28;4969813;28;20751;-80
2023/08/22 06:27:27;;;;;;;0.00;0.00;;;;;;;19.38;100.00;96962.34;4973913;28;20552;-80
2023/08/22 06:30:13;;;;;;;0.10;0.10;;;;;;;19.44;100.00;96961.97;4982970;28;20048;-80
2023/08/22 06:33:00;;;;;;;0.10;0.10;;;;;;;19.42;100.00;96961.47;4973743;28;20050;-80
2023/08/22 06:35:47;;;;;;;0.08;0.08;;;;;;;19.41;100.00;96962.56;4972457;28;20049;-81
2023/08/22 06:38:33;;;;;;;0.05;0.05;;;;;;;19.51;100.00;96963.53;4969116;28;20049;-80
2023/08/22 06:41:19;;;;;;;0.10;0.10;;;;;;;19.60;100.00;96968.00;4979357;28;20046;-80
2023/08/22 06:44:09;;;;;;;0.10;0.10;;;;;;;19.58;100.00;96964.81;4972834;28;20038;-80
2023/08/22 06:46:55;;;;;;;0.10;0.10;;;;;;;19.56;100.00;96950.69;4982865;28;20120;-81
2023/08/22 06:49:40;;;;;;;0.00;0.00;;;;;;;19.47;100.00;96957.88;4975890;28;20046;-80
2023/08/22 06:52:26;;;;;;;0.00;0.00;;;;;;;19.56;100.00;96960.75;4983245;28;20128;-80
2023/08/22 06:55:12;;;;;;;0.00;0.00;;;;;;;19.70;100.00;96962.47;4981808;28;20109;-80
2023/08/22 06:57:58;;;;;;;0.08;0.08;;;;;;;19.66;100.00;96958.69;4984327;28;20038;-81
2023/08/22 07:00:44;;;;;;;0.00;0.00;;;;;;;19.76;100.00;96952.31;4982940;28;20201;-81
2023/08/22 07:03:30;;;;;;;0.10;0.10;;;;;;;19.85;100.00;96960.63;4982807;28;20046;-81
2023/08/22 07:06:16;;;;;;;0.10;0.10;;;;;;;19.90;100.00;96969.47;4972605;28;20064;-81
2023/08/22 07:09:03;;;;;;;0.00;0.00;;;;;;;19.99;100.00;96964.97;4984773;28;20041;-81
2023/08/22 07:11:49;;;;;;;0.08;0.08;;;;;;;20.08;100.00;96967.00;4984757;28;20053;-81
2023/08/22 07:14:36;;;;;;;0.00;0.00;;;;;;;20.20;100.00;96965.44;4984132;28;20753;-81
2023/08/22 07:17:22;;;;;;;0.03;0.03;;;;;;;20.27;100.00;96967.78;4986747;28;20538;-82
2023/08/22 07:20:08;;;;;;;0.10;0.10;;;;;;;20.40;100.00;96971.66;4987243;28;20026;-81
2023/08/22 07:22:54;;;;;;;0.10;0.10;;;;;;;20.47;100.00;96972.91;4987856;28;20133;-81
2023/08/22 07:25:42;;;;;;;0.10;0.10;;;;;;;20.52;100.00;96972.78;4987041;28;20045;-81
2023/08/22 07:28:28;;;;;;;0.00;0.00;;;;;;;20.48;100.00;96981.88;4984724;28;20038;-82
2023/08/22 07:31:14;;;;;;;0.00;0.00;;;;;;;20.50;100.00;96972.28;4986562;28;20510;-82
2023/08/22 07:34:00;;;;;;;0.03;0.03;;;;;;;20.63;100.00;96976.16;4984855;28;20037;-82
2023/08/22 07:36:46;;;;;;;0.00;0.00;;;;;;;20.81;100.00;96980.69;4985286;28;20077;-82
2023/08/22 07:39:31;;;;;;;0.10;0.10;;;;;;;21.00;100.00;96977.84;4975465;28;20045;-81
2023/08/22 07:42:17;;;;;;;0.10;0.10;;;;;;;21.00;100.00;96974.34;4985751;28;20038;-82
2023/08/22 07:45:04;;;;;;;0.03;0.03;;;;;;;21.07;100.00;96972.00;4966412;28;20094;-82
2023/08/22 07:47:49;;;;;;;0.00;0.00;;;;;;;21.10;100.00;96971.44;4958101;28;20042;-81
2023/08/22 07:50:35;;;;;;;0.00;0.00;;;;;;;21.11;100.00;96973.84;4966021;28;20046;-82
2023/08/22 07:53:21;;;;;;;0.10;0.10;;;;;;;21.19;100.00;96977.75;4965625;28;20069;-81
2023/08/22 07:56:07;;;;;;;0.03;0.03;;;;;;;21.41;100.00;96977.88;4965295;28;20381;-82
2023/08/22 07:58:53;;;;;;;0.00;0.00;;;;;;;21.74;100.00;96980.41;4963132;28;20699;-81
2023/08/22 08:01:41;;;;;;;0.00;0.00;;;;;;;22.15;100.00;96979.44;4949511;28;20058;-81
2023/08/22 08:04:30;;;;;;;0.00;0.00;;;;;;;22.65;100.00;96984.75;4961294;28;20656;-82
2023/08/22 08:07:16;;;;;;;0.00;0.00;;;;;;;22.69;100.00;96980.25;4964482;28;20035;-82
2023/08/22 08:10:04;;;;;;;0.00;0.00;;;;;;;22.87;100.00;96981.94;4964112;28;20137;-81
2023/08/22 08:12:50;;;;;;;0.00;0.00;;;;;;;22.86;100.00;96982.28;4964458;28;20039;-81
2023/08/22 08:15:36;;;;;;;0.10;0.10;;;;;;;22.76;100.00;96983.34;4963722;28;20059;-82
2023/08/22 08:18:21;;;;;;;0.00;0.00;;;;;;;22.71;100.00;96989.72;4962241;28;20119;-82
2023/08/22 08:21:07;;;;;;;0.10;0.10;;;;;;;22.56;100.00;96990.13;4940439;28;20073;-82
2023/08/22 08:23:53;;;;;;;0.00;0.00;;;;;;;22.40;100.00;96986.19;4963842;28;20038;-82
2023/08/22 08:26:39;;;;;;;0.00;0.00;;;;;;;22.28;100.00;96985.97;4964116;28;20042;-82
2023/08/22 08:29:25;;;;;;;0.00;0.00;;;;;;;22.17;100.00;96988.91;4964205;28;20039;-82
2023/08/22 08:32:10;;;;;;;0.00;0.00;;;;;;;22.15;100.00;96982.19;4963419;28;20516;-82
2023/08/22 08:34:56;;;;;;;0.10;0.10;;;;;;;22.33;100.00;96991.25;4963870;28;20037;-82
2023/08/22 08:37:42;;;;;;;0.00;0.00;;;;;;;22.35;100.00;96992.59;4965620;28;20038;-81
2023/08/22 08:40:35;;;;;;;0.00;0.00;;;;;;;22.42;100.00;97003.84;4963240;28;20046;-82
2023/08/22 08:43:22;;;;;;;0.00;0.00;;;;;;;22.48;100.00;96993.59;4974903;28;20058;-82
2023/08/22 08:46:08;;;;;;;0.00;0.00;;;;;;;22.61;100.00;97003.63;4985652;28;20046;-83
2023/08/22 08:48:54;;;;;;;0.00;0.00;;;;;;;22.55;100.00;97001.34;4984807;28;20041;-83
2023/08/22 08:51:41;;;;;;;0.00;0.00;;;;;;;22.50;100.00;96999.56;4985414;28;20074;-80
2023/08/22 08:54:28;;;;;;;0.10;0.10;;;;;;;22.53;100.00;97005.19;4982619;28;20116;-81
2023/08/22 08:57:15;;;;;;;0.10;0.10;;;;;;;22.39;100.00;97009.91;4985075;28;20049;-82
2023/08/22 09:00:04;;;;;;;0.10;0.10;;;;;;;22.64;100.00;97010.38;4984994;28;20079;-82
2023/08/22 09:02:50;;;;;;;0.10;0.10;;;;;;;22.70;100.00;97011.84;4974830;28;20066;-81
2023/08/22 09:05:37;;;;;;;0.00;0.00;;;;;;;22.76;100.00;97010.63;4985410;28;20042;-81
2023/08/22 09:08:23;;;;;;;0.10;0.10;;;;;;;22.85;100.00;97014.22;4986192;28;20042;-81
2023/08/22 09:11:09;;;;;;;0.00;0.00;;;;;;;22.99;100.00;97006.72;4983256;28;20039;-81
2023/08/22 09:13:55;;;;;;;0.00;0.00;;;;;;;23.20;100.00;97006.19;4982874;28;20141;-81
2023/08/22 09:16:41;;;;;;;0.10;0.10;;;;;;;23.27;100.00;97003.78;4985857;28;20510;-81
2023/08/22 09:19:34;;;;;;;0.00;0.00;;;;;;;23.49;100.00;97000.13;4983734;28;20037;-81
2023/08/22 09:22:21;;;;;;;0.10;0.10;;;;;;;23.60;100.00;97002.28;4982629;28;20049;-81
2023/08/22 09:25:07;;;;;;;0.10;0.10;;;;;;;23.59;100.00;97006.09;4985970;28;20038;-81
2023/08/22 09:27:53;;;;;;;0.10;0.10;;;;;;;23.68;100.00;97010.81;4986994;28;20042;-81
2023/08/22 09:30:47;;;;;;;0.10;0.10;;;;;;;23.68;100.00;97003.41;4985831;28;20049;-81
2023/08/22 09:33:46;;;;;;;0.05;0.05;;;;;;;24.04;100.00;97016.75;4985295;28;20134;-81
2023/08/22 09:36:32;;;;;;;0.10;0.10;;;;;;;23.98;100.00;97015.31;4983955;28;20637;-81
2023/08/22 09:39:18;;;;;;;0.00;0.00;;;;;;;23.96;100.00;97009.34;4984171;28;20680;-82
2023/08/22 09:42:06;;;;;;;0.10;0.10;;;;;;;24.06;100.00;97019.19;4985423;28;20972;-81
2023/08/22 09:44:54;;;;;;;0.10;0.10;;;;;;;24.10;100.00;97018.22;4985066;28;20049;-81
2023/08/22 09:47:44;;;;;;;0.00;0.00;;;;;;;24.36;100.00;97017.44;4983282;28;20053;-81
2023/08/22 09:50:36;;;;;;;0.10;0.10;;;;;;;24.62;100.00;97018.19;4984118;28;20055;-82
2023/08/22 09:53:23;;;;;;;0.00;0.00;;;;;;;24.72;100.00;97015.09;4980603;28;20287;-81
2023/08/22 09:56:09;;;;;;;0.10;0.10;;;;;;;24.87;100.00;97018.44;4983364;28;20770;-82
2023/08/22 09:58:55;;;;;;;0.10;0.10;;;;;;;24.84;100.00;97021.81;4966858;28;20626;-81
2023/08/22 10:01:42;;;;;;;0.10;0.10;;;;;;;24.62;100.00;97018.19;4983220;28;20144;-82
2023/08/22 10:04:28;;;;;;;0.00;0.00;;;;;;;24.36;100.00;97018.22;4984032;28;20038;-81
2023/08/22 10:07:14;;;;;;;0.10;0.10;;;;;;;24.90;100.00;97020.50;4982230;28;20038;-81
2023/08/22 10:10:00;;;;;;;0.00;0.00;;;;;;;24.97;100.00;97016.13;4985359;28;20104;-81
2023/08/22 10:12:46;;;;;;;0.03;0.03;;;;;;;25.02;100.00;97013.22;4985965;28;20105;-82
2023/08/22 10:15:35;;;;;;;0.00;0.00;;;;;;;25.27;100.00;97016.19;4981126;28;20042;-82
2023/08/22 10:18:24;;;;;;;0.00;0.00;;;;;;;25.51;99.10;97012.84;4983656;28;20045;-81
2023/08/22 10:21:10;;;;;;;0.10;0.10;;;;;;;25.48;100.00;97010.78;4984187;28;20129;-81
2023/08/22 10:23:58;;;;;;;0.10;0.10;;;;;;;25.56;100.00;97004.44;4982053;28;20691;-83
2023/08/22 10:26:58;;;;;;;0.10;0.10;;;;;;;25.89;93.89;97009.22;4982791;28;20088;-82
2023/08/22 10:29:47;;;;;;;0.10;0.10;;;;;;;26.09;96.85;96995.53;4984663;28;20533;-82
2023/08/22 10:32:33;;;;;;;0.10;0.10;;;;;;;26.26;95.48;97004.72;4974179;28;20048;-82
2023/08/22 10:35:19;;;;;;;0.10;0.10;;;;;;;26.42;96.47;97000.25;4978931;28;20968;-83
2023/08/22 10:38:04;;;;;;;0.10;0.10;;;;;;;26.80;94.78;97002.75;4983129;28;20042;-82
2023/08/22 10:40:57;;;;;;;0.10;0.10;;;;;;;26.82;90.26;96997.72;4982439;28;20074;-81
2023/08/22 10:43:43;;;;;;;0.00;0.00;;;;;;;27.04;95.06;97001.22;4981749;28;20054;-82
2023/08/22 10:46:57;;;;;;;0.10;0.10;;;;;;;27.01;89.74;96997.19;4982720;28;20660;-82
2023/08/22 10:49:47;;;;;;;0.03;0.03;;;;;;;27.75;92.22;96998.78;4980941;28;20113;-82
2023/08/22 10:52:33;;;;;;;0.10;0.10;;;;;;;27.96;91.26;96998.63;4981967;28;20037;-83
2023/08/22 10:55:24;;;;;;;0.10;0.10;;;;;;;28.94;84.08;96997.41;4979528;28;20044;-83
2023/08/22 10:58:33;;;;;;;0.10;0.10;;;;;;;30.47;70.99;96990.66;4981323;28;20407;-81
2023/08/22 11:01:20;;;;;;;0.10;0.10;;;;;;;32.35;56.50;96992.06;4983546;28;20045;-82
2023/08/22 11:04:08;;;;;;;0.10;0.10;;;;;;;34.13;46.03;96994.78;4982505;28;20060;-82
2023/08/22 11:06:54;;;;;;;0.10;0.10;;;;;;;35.64;40.90;96992.72;4982266;28;20621;-82
2023/08/22 11:09:40;;;;;;;0.10;0.10;;;;;;;36.54;37.61;96987.69;4982206;28;20045;-82
2023/08/22 11:12:28;;;;;;;0.10;0.10;;;;;;;37.76;33.68;96982.78;4981733;28;20070;-81
2023/08/22 11:15:14;;;;;;;0.20;0.20;;;;;;;38.72;30.64;96983.69;4982902;28;20078;-82
2023/08/22 11:18:04;;;;;;;0.17;0.17;;;;;;;39.44;28.20;96983.34;4982948;28;20029;-82
2023/08/22 11:20:57;;;;;;;0.20;0.20;;;;;;;40.24;26.18;96989.94;4981362;28;20053;-82
2023/08/22 11:23:43;;;;;;;0.10;0.10;;;;;;;41.36;24.85;96982.22;4967904;28;21307;-83
2023/08/22 11:26:28;;;;;;;0.10;0.10;;;;;;;42.38;24.72;96979.88;4982554;28;20129;-83
2023/08/22 11:29:15;;;;;;;0.10;0.10;;;;;;;42.31;23.64;96985.69;4975066;28;20449;-83
2023/08/22 11:32:01;;;;;;;0.10;0.10;;;;;;;41.40;24.69;96984.91;4981875;28;20570;-83
2023/08/22 11:34:49;;;;;;;0.10;0.10;;;;;;;40.65;24.79;96997.88;4981332;28;20091;-82
2023/08/22 11:37:39;;;;;;;0.10;0.10;;;;;;;40.17;25.69;96993.66;4979547;28;20034;-82
2023/08/22 11:40:25;;;;;;;0.10;0.10;;;;;;;41.10;26.02;96983.25;4983074;28;20046;-83
2023/08/22 11:43:14;;;;;;;0.10;0.10;;;;;;;39.49;27.73;96989.25;4982630;28;20054;-83
2023/08/22 11:46:03;;;;;;;0.10;0.10;;;;;;;37.31;31.44;96993.97;4981330;28;20034;-80
2023/08/22 11:48:51;;;;;;;0.00;0.00;;;;;;;36.51;34.86;96996.88;4981237;28;20060;-83
2023/08/22 11:51:36;;;;;;;0.00;0.00;;;;;;;34.40;40.79;96993.34;4982362;28;20042;-82
2023/08/22 11:54:24;;;;;;;0.00;0.00;;;;;;;34.48;40.24;96988.63;4983206;28;20046;-82
2023/08/22 11:57:10;;;;;;;0.00;0.00;;;;;;;35.26;38.55;96987.97;4983514;28;20586;-83
2023/08/22 12:00:00;;;;;;;0.00;0.00;;;;;;;35.47;39.14;96993.53;4979215;28;20041;-82
2023/08/22 12:02:53;;;;;;;0.00;0.00;;;;;;;34.66;40.65;96997.00;4984257;28;20046;-82
2023/08/22 12:05:44;;;;;;;0.00;0.00;;;;;;;34.19;43.84;96996.00;4985463;28;20049;-82
2023/08/22 12:08:30;;;;;;;0.10;0.10;;;;;;;33.59;47.83;97002.00;4973023;28;20049;-82
2023/08/22 12:11:26;;;;;;;0.00;0.00;;;;;;;33.86;44.69;96997.81;4983425;28;20058;-82
2023/08/22 12:14:11;;;;;;;0.00;0.00;;;;;;;34.19;46.56;96998.78;4974968;28;20038;-82
2023/08/22 12:16:57;;;;;;;0.00;0.00;;;;;;;33.50;46.99;96982.91;4983972;28;20451;-82
2023/08/22 12:19:43;;;;;;;0.10;0.10;;;;;;;33.22;47.84;96987.03;4983904;28;20056;-82
2023/08/22 12:22:31;;;;;;;0.00;0.00;;;;;;;34.41;43.49;96991.38;4982430;28;20125;-83
2023/08/22 12:25:17;;;;;;;0.00;0.00;;;;;;;34.47;43.77;96992.56;4984933;28;20036;-82
2023/08/22 12:28:03;;;;;;;0.00;0.00;;;;;;;33.57;46.63;96993.25;4983146;28;20038;-82
2023/08/22 12:30:49;;;;;;;0.00;0.00;;;;;;;32.87;49.38;97001.38;4981274;28;20046;-82
2023/08/22 12:33:37;;;;;;;0.00;0.00;;;;;;;32.24;50.54;97004.19;4972946;28;20038;-82
2023/08/22 12:36:23;;;;;;;0.00;0.00;;;;;;;31.91;54.24;97013.22;4984051;28;20127;-82
2023/08/22 12:39:10;;;;;;;0.10;0.10;;;;;;;31.43;53.91;97007.34;4986470;28;20042;-82
2023/08/22 12:41:56;;;;;;;0.10;0.10;;;;;;;31.53;56.49;97015.03;4983580;28;21085;-82
2023/08/22 12:44:42;;;;;;;0.00;0.00;;;;;;;31.51;59.21;97014.59;4981263;28;20609;-81
2023/08/22 12:47:28;;;;;;;0.00;0.00;;;;;;;32.11;52.24;97023.00;4982397;28;20038;-82
2023/08/22 12:50:14;;;;;;;0.03;0.03;;;;;;;34.24;41.02;97010.31;4984647;28;20459;-82
2023/08/22 12:53:00;;;;;;;0.10;0.10;;;;;;;36.39;35.49;97014.03;4975238;28;20440;-82
2023/08/22 12:55:46;;;;;;;0.00;0.00;;;;;;;36.67;34.70;97001.94;4983568;28;20081;-82
2023/08/22 12:58:32;;;;;;;0.10;0.10;;;;;;;38.94;30.12;96998.94;4986235;28;20030;-83